Aérodrome :
LOGIN :

S'inscrire | Disclaimer

   EN    FR    IT 

 










Légende :    VFR   VFR Marginal   IFR   IFR Intensif   IFR Très Intensif
Visi : 
Plafond : 
>= 8 km
>= 3000ft
5 à 8 km
1000 à 3000 ft
1500m à 5 km
500 à 1000 ft
800 à 1500m
200 à 500 ft
< 800m
< 200 ft
Symboles :   Orages  Brouillard  Fortes neiges  Fortes précipitations  Vent > 20 kt
SIGMETs :   Divers  Orages  Givrage  Turbulence  Onde Orograph.  Cendres Volcan.






- Altitude de l'aérodrome : 768 ft
- Code IATA : MXP


LIMC - Milano Malpensa

DERNIER METAR :
  • 172020Z 09003KT 360V160 9999 BKN060 07/02 Q1022 NOSIG

METARs EXPIRÉS :
  • 171950Z 02004KT 9999 BKN085 07/02 Q1021 NOSIG
  • 171920Z 02005KT 340V040 9999 BKN080 07/02 Q1022 NOSIG
  • 171850Z 01005KT 9999 BKN090 05/02 Q1022 NOSIG
  • 171820Z 02006KT 9999 BKN080 05/02 Q1022 NOSIG
  • 171750Z 01005KT CAVOK 03/01 Q1023 NOSIG

TAF TAF LIMC
Valide du 17 à 18h jusqu'au 19 à 00h UTC


171700Z 1718/1824 VRB05KT 9999 SCT025 SCT060
BECMG 1720/1722 4000 RA BKN012 BKN050
BECMG 1802/1804 7000 NSW SCT025 SCT070
TEMPO 1821/1824 3000 BCFG



MET'MAP, la Météo Aéronautique d'un coup d'oeil ! - Copyright ORBIFLY Décembre 2007 - Disclaimer

ORBIFLY MET'MAP TEAM :

Programmation & Développement : Alexandra Zaïnal
Sur une idée originale de : Baudouin d'Aumeries
Assistance à la programmation : Marc-Olivier Méhu
Soutien technique & logistique : Manuel Goepfert

Contact : metmap@orbifly.com




SOURCES & CREDITS :

   NOAA